Time;durP1;ratioP1;P1;durP2;ratioP2;P2;SDS_P1;SDS_P2;PMS_P1;PMS_P2;Temp;Humidity;BMP_temperature;BMP_pressure;BME280_temperature;BME280_humidity;BME280_pressure;Samples;Min_cycle;Max_cycle;Signal;HPM_P1;HPM_P2
2022/08/28 05:00:39;;;;;;;27.57;24.80;;;20.70;97.20;;;;;;1727870;28;20212;-71
2022/08/28 05:01:30;;;;;;;26.50;23.75;;;20.70;97.20;;;;;;1728075;28;20566;-71
2022/08/28 05:02:22;;;;;;;26.95;24.30;;;20.70;97.20;;;;;;1727630;28;20935;-71
2022/08/28 05:03:15;;;;;;;26.65;23.95;;;20.70;97.20;;;;;;1727877;28;20576;-71
2022/08/28 05:04:06;;;;;;;26.20;23.63;;;20.70;97.20;;;;;;1727868;28;20241;-71
2022/08/28 05:04:57;;;;;;;26.08;23.45;;;20.70;97.20;;;;;;1727877;28;20245;-71
2022/08/28 05:05:52;;;;;;;28.10;25.20;;;20.70;97.20;;;;;;1727976;28;20200;-71
2022/08/28 05:06:45;;;;;;;28.15;25.30;;;20.70;97.20;;;;;;1727867;28;20455;-71
2022/08/28 05:07:36;;;;;;;27.80;23.60;;;20.70;97.20;;;;;;1727695;28;20197;-71
2022/08/28 05:08:28;;;;;;;26.45;23.83;;;20.70;97.20;;;;;;1727885;28;20212;-71
2022/08/28 05:09:20;;;;;;;27.55;24.75;;;20.70;97.20;;;;;;1727773;28;20220;-71
2022/08/28 05:10:11;;;;;;;27.48;24.75;;;20.70;97.20;;;;;;1727773;28;20208;-71
2022/08/28 05:11:09;;;;;;;27.00;24.20;;;20.70;97.20;;;;;;1727845;28;20714;-71
2022/08/28 05:12:03;;;;;;;26.55;23.25;;;20.70;97.20;;;;;;1727836;28;20223;-71
2022/08/28 05:12:54;;;;;;;26.15;23.45;;;20.70;97.20;;;;;;1727487;28;20197;-71
2022/08/28 05:13:45;;;;;;;27.73;24.80;;;20.70;97.20;;;;;;1727408;28;20251;-71
2022/08/28 05:14:36;;;;;;;26.40;23.83;;;20.70;97.20;;;;;;1727543;28;20207;-71
2022/08/28 05:15:28;;;;;;;26.43;23.77;;;20.70;97.20;;;;;;1727613;28;20292;-71
2022/08/28 05:16:21;;;;;;;25.92;23.48;;;20.70;97.20;;;;;;1727742;28;20208;-71
2022/08/28 05:17:13;;;;;;;27.08;24.55;;;20.70;97.20;;;;;;1727575;28;20290;-71
2022/08/28 05:18:04;;;;;;;25.33;22.92;;;20.70;97.20;;;;;;1727725;28;20343;-71
2022/08/28 05:18:59;;;;;;;26.00;23.40;;;20.70;97.20;;;;;;1727725;28;20200;-71
2022/08/28 05:19:51;;;;;;;26.60;23.80;;;20.70;97.20;;;;;;1727839;28;20448;-71
2022/08/28 05:20:45;;;;;;;26.33;23.48;;;20.70;97.20;;;;;;1727638;28;20216;-71
2022/08/28 05:21:37;;;;;;;24.55;22.13;;;20.70;97.20;;;;;;1727832;28;20208;-71
2022/08/28 05:22:30;;;;;;;27.98;23.70;;;20.70;97.20;;;;;;1727836;28;20279;-71
2022/08/28 05:23:22;;;;;;;25.00;22.35;;;20.70;97.20;;;;;;1727763;28;20660;-71
2022/08/28 05:24:14;;;;;;;23.35;21.20;;;20.70;97.20;;;;;;1727858;28;20616;-71
2022/08/28 05:25:05;;;;;;;24.25;21.85;;;20.70;97.20;;;;;;1727824;28;20205;-71
2022/08/28 05:25:57;;;;;;;24.83;22.23;;;20.70;97.20;;;;;;1727837;28;20702;-71
2022/08/28 05:26:48;;;;;;;27.75;23.08;;;20.70;97.20;;;;;;1727463;28;20257;-71
2022/08/28 05:27:40;;;;;;;26.23;23.53;;;20.70;97.20;;;;;;1727378;28;20208;-71
2022/08/28 05:28:31;;;;;;;25.98;23.33;;;20.70;97.20;;;;;;1727755;28;20456;-71
2022/08/28 05:29:22;;;;;;;27.43;22.77;;;20.70;97.20;;;;;;1727657;28;20311;-71
2022/08/28 05:30:13;;;;;;;24.70;21.95;;;20.70;97.20;;;;;;1727656;28;20279;-71
2022/08/28 05:31:09;;;;;;;24.80;22.33;;;20.70;97.20;;;;;;1727745;28;20207;-71
2022/08/28 05:32:02;;;;;;;24.48;22.00;;;20.70;97.20;;;;;;1727651;28;20223;-71
2022/08/28 05:32:54;;;;;;;23.80;21.33;;;20.80;97.20;;;;;;1727711;28;20570;-71
2022/08/28 05:33:46;;;;;;;23.92;21.55;;;20.70;97.20;;;;;;1727744;28;20577;-71
2022/08/28 05:34:37;;;;;;;26.30;23.50;;;20.70;97.20;;;;;;1727760;28;20201;-71
2022/08/28 05:35:31;;;;;;;25.67;23.15;;;20.70;97.20;;;;;;1727783;28;20216;-71
2022/08/28 05:36:24;;;;;;;24.02;21.42;;;20.80;97.20;;;;;;1727749;28;20288;-71
2022/08/28 05:37:15;;;;;;;25.05;22.45;;;20.80;97.20;;;;;;1727374;28;20208;-71
2022/08/28 05:38:08;;;;;;;26.10;23.40;;;20.80;97.20;;;;;;1727741;28;20231;-71
2022/08/28 05:39:00;;;;;;;24.38;22.08;;;20.80;97.20;;;;;;1727587;28;20212;-71
2022/08/28 05:39:52;;;;;;;24.40;22.10;;;20.80;97.20;;;;;;1727807;28;20192;-71
2022/08/28 05:40:44;;;;;;;23.90;21.55;;;20.80;97.20;;;;;;1727595;28;20715;-71
2022/08/28 05:41:38;;;;;;;23.92;21.55;;;20.80;97.20;;;;;;1727650;28;20196;-71
2022/08/28 05:42:29;;;;;;;24.60;22.23;;;20.80;97.20;;;;;;1727741;28;20204;-71
2022/08/28 05:43:21;;;;;;;23.63;21.13;;;20.80;97.20;;;;;;1727407;28;20283;-71
2022/08/28 05:44:15;;;;;;;24.52;22.25;;;20.80;97.20;;;;;;1720923;28;20205;-71
2022/08/28 05:45:08;;;;;;;24.88;22.52;;;20.80;97.20;;;;;;1721002;28;20225;-71
2022/08/28 05:46:00;;;;;;;25.90;23.45;;;20.80;97.20;;;;;;1720865;28;20788;-71
2022/08/28 05:46:52;;;;;;;24.00;21.70;;;20.80;97.20;;;;;;1720874;28;20205;-71
2022/08/28 05:47:44;;;;;;;24.95;22.63;;;20.80;97.20;;;;;;1720537;28;20205;-71
2022/08/28 05:48:36;;;;;;;25.90;23.50;;;20.80;97.20;;;;;;1720912;28;20695;-71
2022/08/28 05:49:27;;;;;;;25.92;23.40;;;20.80;97.20;;;;;;1720818;28;20749;-71
2022/08/28 05:50:18;;;;;;;27.40;23.55;;;20.80;97.20;;;;;;1720780;28;20216;-71
2022/08/28 05:51:13;;;;;;;24.75;22.30;;;20.80;97.20;;;;;;1720947;28;20202;-71
2022/08/28 05:52:04;;;;;;;23.80;21.50;;;20.80;97.20;;;;;;1720854;28;20271;-71
2022/08/28 05:52:56;;;;;;;24.05;21.60;;;20.80;97.20;;;;;;1720898;28;20211;-71
2022/08/28 05:53:48;;;;;;;25.23;21.95;;;20.80;97.20;;;;;;1720862;28;20209;-71
2022/08/28 05:54:40;;;;;;;24.25;21.80;;;20.80;97.20;;;;;;1720800;28;20201;-71
2022/08/28 05:55:31;;;;;;;24.77;22.20;;;20.80;97.20;;;;;;1720907;28;20205;-71
2022/08/28 05:56:24;;;;;;;22.50;20.33;;;20.80;97.20;;;;;;1720803;28;20196;-71
2022/08/28 05:57:15;;;;;;;24.00;21.60;;;20.90;97.20;;;;;;1720543;28;20197;-71
2022/08/28 05:59:14;;;;;;;24.77;22.17;;;20.90;97.20;;;;;;1720627;28;20193;-71
2022/08/28 06:00:09;;;;;;;22.88;20.77;;;20.90;97.20;;;;;;1722592;28;20205;-71
2022/08/28 06:01:06;;;;;;;24.40;22.05;;;20.90;97.20;;;;;;1727432;28;20224;-71
2022/08/28 06:01:58;;;;;;;23.88;21.48;;;20.90;97.20;;;;;;1727509;28;20285;-71
2022/08/28 06:02:50;;;;;;;22.95;20.60;;;20.90;97.20;;;;;;1727570;28;20209;-71
2022/08/28 06:03:44;;;;;;;23.88;21.48;;;20.90;97.20;;;;;;1727507;28;20212;-71
2022/08/28 06:04:36;;;;;;;24.08;21.60;;;20.90;97.20;;;;;;1727624;28;20211;-71
2022/08/28 06:05:28;;;;;;;24.27;21.98;;;20.90;97.20;;;;;;1727558;28;20245;-71
2022/08/28 06:06:19;;;;;;;24.50;22.20;;;20.90;97.20;;;;;;1727600;28;20686;-71
2022/08/28 06:07:12;;;;;;;22.00;19.80;;;20.90;97.20;;;;;;1727378;28;20731;-71
2022/08/28 06:08:03;;;;;;;23.45;21.13;;;20.90;97.20;;;;;;1727491;28;20238;-71
2022/08/28 06:08:56;;;;;;;23.97;20.90;;;20.90;97.20;;;;;;1727183;28;20267;-71
2022/08/28 06:09:47;;;;;;;25.17;21.65;;;20.90;97.20;;;;;;1727512;28;20220;-71
2022/08/28 06:10:43;;;;;;;24.60;22.13;;;20.90;97.20;;;;;;1727514;28;20220;-71
2022/08/28 06:11:37;;;;;;;25.48;22.42;;;21.00;97.20;;;;;;1727620;28;20243;-74
2022/08/28 06:12:29;;;;;;;23.20;20.70;;;20.90;97.20;;;;;;1727532;28;20200;-71
2022/08/28 06:13:20;;;;;;;25.95;21.40;;;20.90;97.20;;;;;;1727485;28;20204;-71
2022/08/28 06:14:13;;;;;;;25.77;23.03;;;21.00;97.20;;;;;;1727480;28;20279;-72
2022/08/28 06:15:04;;;;;;;23.40;21.13;;;21.00;97.20;;;;;;1727532;28;20201;-72
2022/08/28 06:15:56;;;;;;;24.13;21.60;;;21.00;97.20;;;;;;1727471;28;20209;-72
2022/08/28 06:16:49;;;;;;;24.88;22.35;;;21.00;97.20;;;;;;1727057;28;20208;-72
2022/08/28 06:17:41;;;;;;;24.85;22.33;;;21.00;97.20;;;;;;1727269;28;20667;-72
2022/08/28 06:18:33;;;;;;;25.00;22.30;;;21.00;97.20;;;;;;1727398;28;20249;-72
2022/08/28 06:19:27;;;;;;;23.42;21.13;;;21.00;97.20;;;;;;1727531;28;20200;-72
2022/08/28 06:20:18;;;;;;;24.73;22.02;;;21.00;97.20;;;;;;1727423;28;20207;-72
2022/08/28 06:21:10;;;;;;;23.90;21.60;;;21.00;97.20;;;;;;1727446;28;20299;-72
2022/08/28 06:22:02;;;;;;;25.10;22.55;;;21.00;97.20;;;;;;1727517;28;20239;-72
2022/08/28 06:22:54;;;;;;;23.20;20.83;;;21.00;97.20;;;;;;1727674;28;20200;-72
2022/08/28 06:23:45;;;;;;;25.38;22.77;;;21.10;97.20;;;;;;1727412;28;20236;-72
2022/08/28 06:24:37;;;;;;;25.03;22.53;;;21.10;97.20;;;;;;1727467;28;20208;-72
2022/08/28 06:25:27;;;;;;;22.95;20.65;;;21.10;97.20;;;;;;1727429;28;20200;-71
2022/08/28 06:26:19;;;;;;;23.80;21.40;;;21.10;97.20;;;;;;1727429;28;20234;-72
2022/08/28 06:27:10;;;;;;;24.85;22.10;;;21.10;97.20;;;;;;1727078;28;20302;-71
2022/08/28 06:28:02;;;;;;;23.17;20.87;;;21.10;97.20;;;;;;1727407;28;20234;-72
2022/08/28 06:28:53;;;;;;;25.25;22.55;;;21.10;97.20;;;;;;1727422;28;20590;-71
2022/08/28 06:29:45;;;;;;;25.57;21.80;;;21.10;97.20;;;;;;1727362;28;20224;-72
2022/08/28 06:30:36;;;;;;;28.08;21.92;;;21.10;97.20;;;;;;1727380;28;20502;-72
2022/08/28 06:31:28;;;;;;;24.92;22.40;;;21.10;97.20;;;;;;1727425;28;20200;-72
2022/08/28 06:32:19;;;;;;;24.77;21.98;;;21.10;97.20;;;;;;1727331;28;20205;-72
2022/08/28 06:33:15;;;;;;;23.95;21.73;;;21.10;97.20;;;;;;1727178;28;20192;-72
2022/08/28 06:34:08;;;;;;;23.52;21.17;;;21.20;97.20;;;;;;1726660;28;20196;-72
2022/08/28 06:35:00;;;;;;;24.42;21.98;;;21.20;97.20;;;;;;1727297;28;20197;-71
2022/08/28 06:35:53;;;;;;;24.05;21.55;;;21.20;97.20;;;;;;1727409;28;20263;-72
2022/08/28 06:36:44;;;;;;;24.40;21.70;;;21.20;97.20;;;;;;1727361;28;20200;-72
2022/08/28 06:37:35;;;;;;;23.73;21.30;;;21.20;97.20;;;;;;1727169;28;20205;-71
2022/08/28 06:38:27;;;;;;;24.63;22.13;;;21.20;97.20;;;;;;1727264;28;20208;-72
2022/08/28 06:39:18;;;;;;;23.35;20.83;;;21.20;97.20;;;;;;1727401;28;20287;-71
2022/08/28 06:40:10;;;;;;;22.95;20.63;;;21.20;97.20;;;;;;1727408;28;20626;-72
2022/08/28 06:41:07;;;;;;;24.70;21.75;;;21.20;97.20;;;;;;1727310;28;20201;-72
2022/08/28 06:42:00;;;;;;;24.42;21.52;;;21.20;97.20;;;;;;1727405;28;20250;-71
2022/08/28 06:42:50;;;;;;;25.73;22.25;;;21.20;97.20;;;;;;1727451;28;20270;-72
2022/08/28 06:43:43;;;;;;;24.23;21.80;;;21.20;97.20;;;;;;1727419;28;20263;-72
2022/08/28 06:44:33;;;;;;;24.52;22.13;;;21.20;97.20;;;;;;1727366;28;20458;-71
2022/08/28 06:45:25;;;;;;;25.10;22.50;;;21.20;97.20;;;;;;1727410;28;20290;-72
2022/08/28 06:46:16;;;;;;;24.80;22.23;;;21.20;97.20;;;;;;1727254;28;20203;-72
2022/08/28 06:47:09;;;;;;;23.70;21.17;;;21.20;97.20;;;;;;1727383;28;20202;-72
2022/08/28 06:48:00;;;;;;;23.98;21.48;;;21.20;97.20;;;;;;1727350;28;20447;-72
2022/08/28 06:48:52;;;;;;;23.47;21.07;;;21.30;97.20;;;;;;1727346;28;20275;-72
2022/08/28 06:49:44;;;;;;;24.95;22.52;;;21.30;97.20;;;;;;1726621;28;20494;-72
2022/08/28 06:50:39;;;;;;;25.05;22.45;;;21.30;97.20;;;;;;1726654;28;20596;-72
2022/08/28 06:51:30;;;;;;;23.65;21.23;;;21.30;97.20;;;;;;1727188;28;20200;-71
2022/08/28 06:52:22;;;;;;;22.60;20.00;;;21.30;97.20;;;;;;1727324;28;20247;-71
2022/08/28 06:53:15;;;;;;;24.52;21.35;;;21.30;97.20;;;;;;1727398;28;20196;-72
2022/08/28 06:54:07;;;;;;;22.63;20.23;;;21.30;97.20;;;;;;1727331;28;20287;-72
2022/08/28 06:54:58;;;;;;;22.88;20.77;;;21.30;97.20;;;;;;1727379;28;20212;-72
2022/08/28 06:55:57;;;;;;;23.17;20.67;;;21.30;97.20;;;;;;1727373;28;20283;-72
2022/08/28 06:56:49;;;;;;;24.05;21.13;;;21.30;97.20;;;;;;1727272;28;20215;-72
2022/08/28 06:57:40;;;;;;;24.17;21.77;;;21.40;97.20;;;;;;1727020;28;20219;-72
2022/08/28 06:58:32;;;;;;;22.97;20.57;;;21.30;97.20;;;;;;1727322;28;20275;-72
2022/08/28 06:59:22;;;;;;;23.17;20.73;;;21.40;97.20;;;;;;1727282;28;20462;-72
2022/08/28 07:00:14;;;;;;;23.30;20.90;;;21.40;97.20;;;;;;1727121;28;20287;-72
2022/08/28 07:01:09;;;;;;;23.08;20.73;;;21.40;97.20;;;;;;1727186;28;20200;-72
2022/08/28 07:02:01;;;;;;;23.17;20.05;;;21.40;97.20;;;;;;1727297;28;20193;-72
2022/08/28 07:02:52;;;;;;;22.95;20.75;;;21.40;97.20;;;;;;1727368;28;20567;-72
2022/08/28 07:03:45;;;;;;;23.37;20.90;;;21.40;97.20;;;;;;1727395;28;20311;-72
2022/08/28 07:04:36;;;;;;;24.02;21.42;;;21.40;97.20;;;;;;1727321;28;20208;-72
2022/08/28 07:05:29;;;;;;;23.02;20.60;;;21.40;97.20;;;;;;1727351;28;20279;-72
2022/08/28 07:06:22;;;;;;;22.02;19.65;;;21.40;97.20;;;;;;1726821;28;20197;-72
2022/08/28 07:07:13;;;;;;;22.23;19.92;;;21.40;97.20;;;;;;1726863;28;20189;-72
2022/08/28 07:08:04;;;;;;;21.83;19.48;;;21.40;97.20;;;;;;1727313;28;20211;-72
2022/08/28 07:08:56;;;;;;;23.30;19.57;;;21.40;97.20;;;;;;1727191;28;20291;-72
2022/08/28 07:09:47;;;;;;;23.38;20.25;;;21.40;97.20;;;;;;1727292;28;20205;-72
2022/08/28 07:10:39;;;;;;;22.40;20.03;;;21.40;97.20;;;;;;1727195;28;20259;-72
2022/08/28 07:11:32;;;;;;;23.85;21.45;;;21.40;97.20;;;;;;1727308;28;20235;-72
2022/08/28 07:12:24;;;;;;;21.77;19.67;;;21.40;97.20;;;;;;1727275;28;20215;-72
2022/08/28 07:13:14;;;;;;;21.02;18.83;;;21.40;97.20;;;;;;1727296;28;20212;-72
2022/08/28 07:14:07;;;;;;;22.87;20.50;;;21.40;97.20;;;;;;1727251;28;20201;-71
2022/08/28 07:14:58;;;;;;;22.35;19.88;;;21.40;97.20;;;;;;1727282;28;20216;-71
2022/08/28 07:15:49;;;;;;;21.77;19.50;;;21.40;97.20;;;;;;1727267;28;20283;-72
2022/08/28 07:16:41;;;;;;;21.23;19.10;;;21.40;97.20;;;;;;1727224;28;20440;-71
2022/08/28 07:17:31;;;;;;;24.63;21.58;;;21.40;97.20;;;;;;1727048;28;20869;-72
2022/08/28 07:18:23;;;;;;;21.80;19.53;;;21.40;97.20;;;;;;1727097;28;20573;-72
2022/08/28 07:19:14;;;;;;;21.02;18.98;;;21.40;97.20;;;;;;1727264;28;20439;-71
2022/08/28 07:20:07;;;;;;;21.25;19.00;;;21.40;97.20;;;;;;1727285;28;20250;-72
2022/08/28 07:20:59;;;;;;;22.05;19.75;;;21.40;97.20;;;;;;1727239;28;20315;-72
2022/08/28 07:21:51;;;;;;;22.30;20.00;;;21.40;97.20;;;;;;1727255;28;20623;-72
2022/08/28 07:22:42;;;;;;;21.88;19.75;;;21.40;97.20;;;;;;1726924;28;20683;-72
2022/08/28 07:23:36;;;;;;;23.38;21.08;;;21.40;97.20;;;;;;1727239;28;20212;-72
2022/08/28 07:24:28;;;;;;;22.60;20.20;;;21.50;97.20;;;;;;1727289;28;20243;-72
2022/08/28 07:25:20;;;;;;;24.77;21.05;;;21.50;97.20;;;;;;1727212;28;20247;-72
2022/08/28 07:26:14;;;;;;;23.30;20.85;;;21.50;97.20;;;;;;1727277;28;20325;-72
2022/08/28 07:27:05;;;;;;;22.15;19.80;;;21.50;97.20;;;;;;1727387;28;20212;-72
2022/08/28 07:27:56;;;;;;;20.92;18.92;;;21.50;97.20;;;;;;1726968;28;20208;-72
2022/08/28 07:28:48;;;;;;;22.27;20.07;;;21.50;97.20;;;;;;1727209;28;20200;-72
2022/08/28 07:29:39;;;;;;;23.13;20.90;;;21.50;97.20;;;;;;1727350;28;20204;-72
2022/08/28 07:30:31;;;;;;;24.80;21.98;;;21.50;97.20;;;;;;1727101;28;20307;-72
2022/08/28 07:31:24;;;;;;;21.48;19.17;;;21.50;97.20;;;;;;1727270;28;20671;-72
2022/08/28 07:32:17;;;;;;;22.33;19.70;;;21.50;97.20;;;;;;1727186;28;20250;-72
2022/08/28 07:33:08;;;;;;;22.88;20.50;;;21.50;97.20;;;;;;1727225;28;20217;-72
2022/08/28 07:33:59;;;;;;;21.53;19.50;;;21.50;97.20;;;;;;1727164;28;20197;-72
2022/08/28 07:34:50;;;;;;;21.27;19.17;;;21.50;97.20;;;;;;1727242;28;20586;-72
2022/08/28 07:35:43;;;;;;;22.03;19.80;;;21.50;97.20;;;;;;1727212;28;20637;-72
2022/08/28 07:36:36;;;;;;;23.63;20.05;;;21.50;97.20;;;;;;1727245;28;20204;-72
2022/08/28 07:37:28;;;;;;;22.15;19.95;;;21.50;97.20;;;;;;1727633;28;20259;-71
2022/08/28 07:38:19;;;;;;;20.63;18.63;;;21.50;97.20;;;;;;1728433;28;20201;-71
2022/08/28 07:39:12;;;;;;;21.60;19.58;;;21.50;97.20;;;;;;1728081;28;20193;-71
2022/08/28 07:40:04;;;;;;;21.25;19.15;;;21.50;97.20;;;;;;1728314;28;20203;-72
2022/08/28 07:40:56;;;;;;;22.00;19.65;;;21.60;97.20;;;;;;1728382;28;20591;-72
2022/08/28 07:41:47;;;;;;;23.42;21.08;;;21.50;97.20;;;;;;1728574;28;20200;-72
2022/08/28 07:44:58;;;;;;;21.33;18.45;;;21.60;97.20;;;;;;1728545;28;20204;-72
2022/08/28 07:45:56;;;;;;;21.00;19.05;;;21.60;97.20;;;;;;1728439;28;20662;-72
2022/08/28 07:46:48;;;;;;;21.80;19.48;;;21.60;97.20;;;;;;1728510;28;20552;-72
2022/08/28 07:47:39;;;;;;;20.98;18.98;;;21.60;97.20;;;;;;1728147;28;20213;-72
2022/08/28 07:48:32;;;;;;;21.65;19.52;;;21.60;97.20;;;;;;1728465;28;20293;-71
2022/08/28 07:49:23;;;;;;;21.98;19.67;;;21.60;97.20;;;;;;1728377;28;20354;-72
2022/08/28 07:50:15;;;;;;;20.95;18.80;;;21.60;97.20;;;;;;1728282;28;20282;-72
2022/08/28 07:51:07;;;;;;;20.48;18.58;;;21.60;97.20;;;;;;1728380;28;20212;-72
2022/08/28 07:52:01;;;;;;;22.45;18.65;;;21.60;97.20;;;;;;1728374;28;20283;-72
2022/08/28 07:52:52;;;;;;;19.80;17.90;;;21.60;97.20;;;;;;1728337;28;20200;-72
2022/08/28 07:53:43;;;;;;;19.97;18.07;;;21.60;97.20;;;;;;1728354;28;20325;-72
2022/08/28 07:54:35;;;;;;;19.33;17.42;;;21.60;97.20;;;;;;1728462;28;20207;-72
2022/08/28 07:55:28;;;;;;;20.17;18.13;;;21.60;97.20;;;;;;1728424;28;20224;-72
2022/08/28 07:56:19;;;;;;;20.27;18.30;;;21.60;97.20;;;;;;1727921;28;20212;-72
2022/08/28 07:57:11;;;;;;;19.63;17.73;;;21.60;97.20;;;;;;1728006;28;20280;-72
2022/08/28 07:58:02;;;;;;;19.80;17.77;;;21.60;97.20;;;;;;1728343;28;20220;-72
2022/08/28 07:58:55;;;;;;;20.37;18.27;;;21.60;97.20;;;;;;1728360;28;20304;-72
2022/08/28 07:59:45;;;;;;;20.13;18.23;;;21.60;97.20;;;;;;1728309;28;20208;-71
2022/08/28 08:00:37;;;;;;;19.67;17.57;;;21.70;97.20;;;;;;1728300;28;20224;-72
2022/08/28 08:01:29;;;;;;;19.05;17.15;;;21.70;97.20;;;;;;1728370;28;20456;-72
2022/08/28 08:02:20;;;;;;;17.65;15.90;;;21.70;97.20;;;;;;1728281;28;20200;-71
2022/08/28 08:03:12;;;;;;;19.60;17.77;;;21.70;97.20;;;;;;1728364;28;20200;-72
2022/08/28 08:04:06;;;;;;;18.55;16.92;;;21.70;97.20;;;;;;1728269;28;20199;-72
2022/08/28 08:04:57;;;;;;;20.60;18.70;;;21.70;97.20;;;;;;1728228;28;20219;-72
2022/08/28 08:05:53;;;;;;;18.37;16.67;;;21.70;97.20;;;;;;1728424;28;20287;-72
2022/08/28 08:06:44;;;;;;;18.30;16.58;;;21.70;97.20;;;;;;1728253;28;20235;-71
2022/08/28 08:07:39;;;;;;;19.23;17.33;;;21.70;97.20;;;;;;1728078;28;20713;-71
2022/08/28 08:08:32;;;;;;;19.15;17.45;;;21.70;97.20;;;;;;1728286;28;20209;-72
2022/08/28 08:09:24;;;;;;;18.05;16.20;;;21.70;97.20;;;;;;1728282;28;20576;-72
2022/08/28 08:10:15;;;;;;;19.33;17.48;;;21.70;97.20;;;;;;1728129;28;20210;-72
2022/08/28 08:11:10;;;;;;;18.10;16.50;;;21.70;97.20;;;;;;1728252;28;20279;-72
2022/08/28 08:12:00;;;;;;;19.10;17.17;;;21.70;97.20;;;;;;1728276;28;20200;-71
2022/08/28 08:12:52;;;;;;;19.07;16.50;;;21.70;97.20;;;;;;1728023;28;20655;-72
2022/08/28 08:13:45;;;;;;;18.95;17.15;;;21.70;97.20;;;;;;1727966;28;20224;-72
2022/08/28 08:14:37;;;;;;;18.95;17.05;;;21.70;97.20;;;;;;1728248;28;20208;-72
2022/08/28 08:15:28;;;;;;;18.58;16.80;;;21.70;97.20;;;;;;1728275;28;20224;-72
2022/08/28 08:16:22;;;;;;;19.70;17.70;;;21.70;97.20;;;;;;1728250;28;20322;-72
2022/08/28 08:17:13;;;;;;;17.38;15.70;;;21.70;97.20;;;;;;1727906;28;20242;-72
2022/08/28 08:18:05;;;;;;;19.47;17.17;;;21.70;97.20;;;;;;1728182;28;20196;-72
2022/08/28 08:18:56;;;;;;;19.10;17.40;;;21.70;97.20;;;;;;1728111;28;20205;-72
2022/08/28 08:19:48;;;;;;;17.02;15.57;;;21.70;97.20;;;;;;1728181;28;20196;-72
2022/08/28 08:20:39;;;;;;;18.00;16.30;;;21.70;97.20;;;;;;1728066;28;20255;-72
2022/08/28 08:21:31;;;;;;;17.57;15.87;;;21.70;97.20;;;;;;1728288;28;20211;-72
2022/08/28 08:22:22;;;;;;;17.65;16.23;;;21.70;97.20;;;;;;1728091;28;20204;-72
2022/08/28 08:23:15;;;;;;;18.60;16.80;;;21.70;97.20;;;;;;1728197;28;20192;-72
2022/08/28 08:24:07;;;;;;;17.27;15.57;;;21.80;97.20;;;;;;1728151;28;20223;-72
2022/08/28 08:24:59;;;;;;;20.05;18.10;;;21.80;97.20;;;;;;1728198;28;20204;-72
2022/08/28 08:25:55;;;;;;;20.67;18.75;;;21.80;97.20;;;;;;1728256;28;20291;-71
2022/08/28 08:26:47;;;;;;;19.42;17.63;;;21.80;97.20;;;;;;1727720;28;20200;-72
2022/08/28 08:27:38;;;;;;;18.00;16.20;;;21.90;97.20;;;;;;1727871;28;20663;-72
2022/08/28 08:28:30;;;;;;;19.07;17.13;;;21.90;97.20;;;;;;1728130;28;20585;-72
2022/08/28 08:29:20;;;;;;;18.63;15.25;;;21.90;97.20;;;;;;1728048;28;20447;-72
2022/08/28 08:30:12;;;;;;;17.67;15.93;;;21.90;97.20;;;;;;1727999;28;20283;-72
2022/08/28 08:31:06;;;;;;;18.83;16.92;;;22.00;97.20;;;;;;1728165;28;20923;-71
2022/08/28 08:32:04;;;;;;;18.00;16.38;;;22.00;97.20;;;;;;1728155;28;20193;-72
2022/08/28 08:32:54;;;;;;;17.63;16.00;;;22.00;97.20;;;;;;1728203;28;20232;-72
2022/08/28 08:33:49;;;;;;;16.87;15.17;;;22.10;97.20;;;;;;1728119;28;20200;-72
2022/08/28 08:34:41;;;;;;;16.20;14.40;;;22.10;97.20;;;;;;1728125;28;20205;-72
2022/08/28 08:35:33;;;;;;;17.00;15.52;;;22.10;97.20;;;;;;1728138;28;20201;-72
2022/08/28 08:36:25;;;;;;;16.45;14.95;;;22.20;97.20;;;;;;1728090;28;20204;-72
2022/08/28 08:37:17;;;;;;;17.05;15.35;;;22.20;97.20;;;;;;1727746;28;20204;-72
2022/08/28 08:38:08;;;;;;;16.45;14.85;;;22.20;97.20;;;;;;1728131;28;20200;-72
2022/08/28 08:39:02;;;;;;;16.75;15.18;;;22.30;97.20;;;;;;1728065;28;20247;-72
2022/08/28 08:39:53;;;;;;;14.80;13.50;;;22.30;97.20;;;;;;1728111;28;20545;-72
2022/08/28 08:40:45;;;;;;;16.60;15.00;;;22.30;97.20;;;;;;1727967;28;20223;-72
2022/08/28 08:41:40;;;;;;;16.45;14.95;;;22.30;97.20;;;;;;1728035;28;20224;-72
2022/08/28 08:42:33;;;;;;;16.20;14.70;;;22.40;97.20;;;;;;1728107;28;20197;-72
2022/08/28 08:43:25;;;;;;;18.02;16.20;;;22.40;97.20;;;;;;1727590;28;20201;-72
2022/08/28 08:44:23;;;;;;;16.27;14.73;;;22.40;97.20;;;;;;1727769;28;20200;-72
2022/08/28 08:45:19;;;;;;;15.57;14.07;;;22.40;97.20;;;;;;1728058;28;20208;-72
2022/08/28 08:46:11;;;;;;;15.65;14.25;;;22.40;97.20;;;;;;1728076;28;20201;-71
2022/08/28 08:47:08;;;;;;;16.42;14.77;;;22.50;97.20;;;;;;1727931;28;20200;-72
2022/08/28 08:48:01;;;;;;;16.40;14.82;;;22.50;97.20;;;;;;1728006;28;20197;-71
2022/08/28 08:48:54;;;;;;;17.42;15.90;;;22.50;97.20;;;;;;1727043;28;20208;-72
2022/08/28 08:49:51;;;;;;;16.42;14.93;;;22.50;97.20;;;;;;1727931;28;20626;-72
2022/08/28 08:50:42;;;;;;;16.95;14.85;;;22.50;97.20;;;;;;1727818;28;20232;-72
2022/08/28 08:51:41;;;;;;;16.27;14.70;;;22.50;97.20;;;;;;1728079;28;20204;-72
2022/08/28 08:52:42;;;;;;;17.27;15.68;;;22.60;97.20;;;;;;1728069;28;20254;-72
2022/08/28 08:53:44;;;;;;;16.55;15.02;;;22.60;97.20;;;;;;1728091;28;20627;-72
2022/08/28 08:54:40;;;;;;;16.38;14.88;;;22.60;97.20;;;;;;1728105;28;20209;-72
2022/08/28 08:55:35;;;;;;;16.08;14.55;;;22.60;97.20;;;;;;1728071;28;20204;-72
2022/08/28 08:56:26;;;;;;;16.65;15.00;;;22.60;97.20;;;;;;1727946;28;20212;-71
2022/08/28 08:57:18;;;;;;;17.40;15.70;;;22.60;97.20;;;;;;1727638;28;20200;-71
2022/08/28 08:58:12;;;;;;;16.30;14.80;;;22.60;97.20;;;;;;1727972;28;20211;-72
2022/08/28 08:59:07;;;;;;;16.17;14.68;;;22.60;97.20;;;;;;1727848;28;20231;-72
2022/08/28 08:59:58;;;;;;;15.70;14.20;;;22.60;97.20;;;;;;1727554;28;20196;-72
2022/08/28 09:00:59;;;;;;;18.63;14.45;;;22.70;97.20;;;;;;1727742;28;20761;-72
2022/08/28 09:02:00;;;;;;;16.20;14.80;;;22.70;97.20;;;;;;1727959;28;20576;-72
2022/08/28 09:02:58;;;;;;;15.52;14.13;;;22.70;97.20;;;;;;1728027;28;20582;-71
2022/08/28 09:03:54;;;;;;;15.65;14.15;;;22.80;97.20;;;;;;1727960;28;20204;-72
2022/08/28 09:04:53;;;;;;;16.73;15.20;;;22.80;97.20;;;;;;1728006;28;20200;-72
2022/08/28 09:05:48;;;;;;;16.70;15.20;;;22.80;97.20;;;;;;1728001;28;20204;-72
2022/08/28 09:06:45;;;;;;;15.13;13.60;;;22.80;97.20;;;;;;1727875;28;20205;-72
2022/08/28 09:07:40;;;;;;;15.93;13.93;;;22.90;97.20;;;;;;1727610;28;20235;-72
2022/08/28 09:08:39;;;;;;;14.98;13.50;;;22.90;97.20;;;;;;1727815;28;20648;-72
2022/08/28 09:09:33;;;;;;;16.67;15.05;;;22.90;97.20;;;;;;1727896;28;20208;-72
2022/08/28 09:10:38;;;;;;;16.25;14.63;;;22.90;97.20;;;;;;1727741;28;20196;-72
2022/08/28 09:11:41;;;;;;;15.50;13.98;;;22.90;97.20;;;;;;1727908;28;20207;-72
2022/08/28 09:12:48;;;;;;;16.80;15.18;;;22.90;97.20;;;;;;1727881;28;20224;-72
2022/08/28 09:13:49;;;;;;;15.10;13.73;;;22.90;97.20;;;;;;1727893;28;20208;-72
2022/08/28 09:14:49;;;;;;;15.93;14.13;;;22.90;97.20;;;;;;1727887;28;20229;-72
2022/08/28 09:15:43;;;;;;;15.52;13.95;;;22.90;97.20;;;;;;1727804;28;20204;-72
2022/08/28 09:16:38;;;;;;;15.75;14.38;;;22.90;97.20;;;;;;1727569;28;20205;-72
2022/08/28 09:17:34;;;;;;;15.05;13.65;;;22.90;97.20;;;;;;1724067;28;20224;-72
2022/08/28 09:18:31;;;;;;;14.55;13.15;;;22.90;97.20;;;;;;1727746;28;20212;-72
2022/08/28 09:19:22;;;;;;;14.23;12.93;;;22.90;97.20;;;;;;1727846;28;20826;-72
2022/08/28 09:20:16;;;;;;;15.33;13.93;;;23.00;97.20;;;;;;1727798;28;20660;-72
2022/08/28 09:21:07;;;;;;;15.20;13.13;;;23.00;97.20;;;;;;1727784;28;20201;-72
2022/08/28 09:21:59;;;;;;;14.27;12.93;;;23.00;97.20;;;;;;1727795;28;20702;-72
2022/08/28 09:22:50;;;;;;;15.55;14.13;;;23.00;97.20;;;;;;1727793;28;20212;-72
2022/08/28 09:23:42;;;;;;;14.05;12.82;;;23.00;97.20;;;;;;1727788;28;20200;-72
2022/08/28 09:24:35;;;;;;;14.18;12.82;;;23.00;97.20;;;;;;1727876;28;20201;-72
2022/08/28 09:25:56;;;;;;;15.68;14.27;;;23.00;97.20;;;;;;1727731;28;20577;-72
2022/08/28 09:26:56;;;;;;;14.18;12.65;;;23.00;97.20;;;;;;1700302;29;20211;-72
2022/08/28 09:27:51;;;;;;;14.95;13.45;;;23.00;97.20;;;;;;1714845;28;20201;-72
2022/08/28 09:28:49;;;;;;;14.43;13.13;;;23.00;97.20;;;;;;1727659;28;20197;-72
2022/08/28 09:29:42;;;;;;;15.35;13.77;;;22.90;97.20;;;;;;1727806;28;20679;-71
2022/08/28 09:30:34;;;;;;;17.45;15.50;;;22.90;97.20;;;;;;1727704;28;20251;-72
2022/08/28 09:31:30;;;;;;;15.52;14.13;;;22.90;97.20;;;;;;1727363;28;20204;-72
2022/08/28 09:32:26;;;;;;;14.57;13.18;;;22.90;97.20;;;;;;1727736;28;20275;-72